Station: Mount Lofty

  Atmospheric Gas Attenuation - ITU Rec 676-11   --------------- db/100km ---------------
Date Time Temp RH % AH g/m3 Dew Point Wind Direction Speed kph Gust kph Barometer mB Rainfall Since 9am 24GHz 47GHz 76GHz 122GHz 134GHz 241GHz
03 09:20 14 70 8.44 8.6 4 6 1013.1 0 19.2 25.6 39.1 102.5 96.0 330.2
03 09:10 13.4 71 8.25 8.2 6 11 1013.1 0 18.9 25.4 38.6 101.2 94.3 324.0
03 09:00 12.4 69 7.54 6.9 9 17 1013.1 0 17.4 24.6 36.2 95.0 86.2 295.5
03 08:50 12.6 70 7.74 7.4 11 17 1013.1 0 17.8 24.8 36.9 96.8 88.6 303.9
03 08:40 12.3 73 7.93 7.6 9 13 1013.1 0 18.2 25.2 37.8 99.2 91.4 313.8
03 08:30 12 76 8.1 7.9 11 19 1013.1 0 18.6 25.6 38.7 101.4 94.0 322.8
03 08:20 11.8 76 8 7.7 9 15 1013.1 0 18.4 25.5 38.4 100.6 92.9 319.0
03 08:10 11.8 78 8.21 8.1 11 15 1013.1 0 18.9 25.8 39.2 102.9 95.7 328.8
03 08:00 11.1 78 7.86 7.4 11 20 1013.1 0 18.1 25.5 38.1 100.0 91.9 315.3
03 07:50 11.3 81 8.26 8.1 9 15 1013.1 0 19.0 26.1 39.7 104.1 97.0 333.3
03 07:40 10.6 84 8.2 8 9 13 1013.1 0 18.9 26.2 39.8 104.3 97.1 333.4
03 07:30 10 87 8.18 7.9 13 20 1013.1 0 18.9 26.3 40.0 104.9 97.6 335.0
03 07:20 9.5 88 8.01 7.6 11 17 1013.1 0 18.5 26.2 39.5 103.7 95.9 329.0
03 07:10 9.4 90 8.14 7.8 13 19 1013.1 0 18.8 26.4 40.1 105.3 97.8 335.7
03 07:00 9.2 92 8.22 8 13 20 1013.1 0 19.0 26.6 40.6 106.5 99.1 340.4
03 06:50 8.9 93 8.15 7.8 15 19 1013.1 0 18.9 26.6 40.4 106.1 98.5 338.3
03 06:40 8.7 93 8.05 7.7 15 20 1013.1 0 18.7 26.5 40.1 105.2 97.4 334.4
03 06:30 8.6 95 8.17 7.8 13 24 1013.1 0 18.9 26.7 40.7 106.7 99.2 340.6
03 06:20 8.4 96 8.15 7.8 13 19 1013.1 0 18.9 26.7 40.7 106.8 99.2 340.5
03 06:10 8.5 96 8.2 7.9 11 17 1013.1 0 19.0 26.8 40.8 107.2 99.8 342.5
03 03:01 8.8 97 8.45 8.3 9 13 1013.1 0 19.5 27.1 41.8 109.6 102.9 353.5
03 03:00 8.8 97 8.45 8.4 9 19 1013.1 0 19.5 27.1 41.8 109.6 102.9 353.5
03 02:50 8.8 97 8.45 8.3 11 17 1013.1 0 19.5 27.1 41.8 109.6 102.9 353.5
03 02:40 8.7 97 8.39 8.2 13 15 1013.1 0 19.4 27.1 41.6 109.1 102.2 351.0
03 02:30 8.6 97 8.34 8.2 15 22 1013.1 0 19.3 27.0 41.4 108.7 101.6 349.0
03 02:20 8.6 97 8.34 8.1 11 15 1013.1 0 19.3 27.0 41.4 108.7 101.6 349.0
03 02:10 8.5 96 8.2 7.9 13 19 1013.1 0 19.0 26.8 40.8 107.2 99.8 342.5
03 02:00 8.4 96 8.15 7.8 13 26 1013.1 0 18.9 26.7 40.7 106.8 99.2 340.5
03 01:50 8.4 96 8.15 7.8 13 17 1013.1 0 18.9 26.7 40.7 106.8 99.2 340.5
03 01:40 8.3 96 8.09 7.7 15 22 1013.1 0 18.8 26.7 40.5 106.2 98.5 338.0
03 01:30 8.3 96 8.09 7.7 13 24 1013.1 0 18.8 26.7 40.5 106.2 98.5 338.0
03 01:20 8.2 95 7.96 7.4 13 20 1013.1 0 18.5 26.5 40.0 104.9 96.8 332.1
03 01:10 8.2 95 7.96 7.4 19 28 1013.1 0 18.5 26.5 40.0 104.9 96.8 332.1
03 01:00 8.3 95 8.01 7.5 15 22 1013.1 0 18.6 26.5 40.1 105.3 97.4 334.1
03 00:50 8.4 94 7.98 7.5 15 20 1013.1 0 18.5 26.5 40.0 104.8 96.8 332.2
03 00:40 8.4 94 7.98 7.5 17 24 1013.1 0 18.5 26.5 40.0 104.8 96.8 332.2
03 00:30 8.4 93 7.89 7.3 15 26 1013.1 0 18.3 26.3 39.6 103.8 95.6 327.9
03 00:20 8.4 93 7.89 7.3 15 22 1013.1 0 18.3 26.3 39.6 103.8 95.6 327.9
03 00:10 8.5 91 7.77 7.2 15 22 1013.1 0 18.1 26.1 39.0 102.4 93.8 321.6
03 00:00 8.6 92 7.91 7.4 17 28 1013.1 0 18.4 26.3 39.6 103.8 95.6 328.0
02 23:50 8.6 91 7.82 7.3 19 26 1013.1 0 18.2 26.1 39.2 102.8 94.4 323.6
02 23:40 8.6 91 7.82 7.3 15 20 1013.1 0 18.2 26.1 39.2 102.8 94.4 323.6
02 23:30 8.5 92 7.86 7.3 15 26 1013.1 0 18.3 26.2 39.4 103.4 95.0 326.0
02 23:20 8.5 91 7.77 7.2 15 20 1013.1 0 18.1 26.1 39.0 102.4 93.8 321.6
02 23:10 8.4 93 7.89 7.3 15 19 1013.1 0 18.3 26.3 39.6 103.8 95.6 327.9
02 23:00 8.4 93 7.89 7.3 13 28 1013.1 0 18.3 26.3 39.6 103.8 95.6 327.9
02 22:50 8.2 93 7.79 7.1 15 20 1013.1 0 18.1 26.2 39.3 103.0 94.4 323.9
02 22:40 8.2 93 7.79 7.1 13 19 1013.1 0 18.1 26.2 39.3 103.0 94.4 323.9
02 22:30 8.2 92 7.71 7 15 28 1013.1 0 17.9 26.1 38.9 102.1 93.3 320.0
02 22:20 8.2 91 7.62 6.9 19 26 1013.1 0 17.7 25.9 38.6 101.1 92.1 315.6
02 22:10 8.3 91 7.67 7 15 22 1013.1 0 17.8 26.0 38.7 101.5 92.7 317.6
02 22:00 8.4 91 7.72 7 13 26 1013.1 0 18.0 26.0 38.9 101.9 93.2 319.6
02 21:50 8.4 91 7.72 7 15 26 1013.1 0 18.0 26.0 38.9 101.9 93.2 319.6
02 21:40 8.5 90 7.69 6.9 13 20 1013.1 0 17.9 25.9 38.7 101.5 92.7 317.8
02 21:30 8.6 90 7.74 7.1 11 19 1013.1 0 18.0 26.0 38.9 101.9 93.3 319.8
02 21:20 8.6 89 7.65 6.9 11 19 1013.1 0 17.8 25.8 38.5 100.9 92.0 315.5
02 21:10 8.7 88 7.61 6.8 11 15 1013.1 0 17.7 25.7 38.3 100.3 91.4 313.1
02 21:00 8.9 88 7.71 7 11 20 1013.1 0 17.9 25.9 38.6 101.2 92.5 317.1
02 20:50 8.9 88 7.71 7 11 17 1013.1 0 17.9 25.9 38.6 101.2 92.5 317.1
02 20:40 9.2 87 7.77 7.1 7 9 1013.1 0 18.0 25.9 38.7 101.4 92.9 318.8
02 20:30 9.4 86 7.78 7.2 13 24 1013.1 0 18.0 25.8 38.6 101.3 92.8 318.4
02 20:20 9.6 85 7.79 7.2 13 19 1013.1 0 18.0 25.8 38.6 101.1 92.7 318.1
02 20:10 10.1 83 7.85 7.3 11 15 1013.1 0 18.2 25.7 38.6 101.2 92.9 318.9
02 20:00 10.5 82 7.95 7.6 7 13 1013.1 0 18.4 25.8 38.8 101.7 93.8 322.0
02 19:50 10.8 79 7.81 7.3 9 13 1013.1 0 18.0 25.5 38.1 99.8 91.6 314.2
02 19:40 11.3 77 7.86 7.4 7 11 1013.1 0 18.1 25.4 38.0 99.7 91.6 314.5
02 19:30 11.6 76 7.9 7.5 7 17 1013.1 0 18.2 25.4 38.1 99.8 91.8 315.2
02 19:20 12 75 7.99 7.7 7 13 1013.1 0 18.4 25.4 38.2 100.2 92.5 317.7
02 19:10 12.5 72 7.92 7.6 7 9 1013.1 0 18.2 25.2 37.7 98.9 91.0 312.5
02 19:00 12.8 73 8.18 8.1 7 15 1013.1 0 18.7 25.5 38.6 101.2 94.1 323.3
02 18:50 13.3 72 8.32 8.3 6 7 1013.1 0 19.0 25.6 38.9 102.1 95.3 327.6
02 18:40 13.7 70 8.29 8.3 6 6 1013.1 0 18.9 25.4 38.6 101.3 94.4 324.6
02 18:30 14.3 68 8.35 8.5 7 20 1013.1 0 19.0 25.3 38.5 101.1 94.5 324.9
02 18:20 14.6 63 7.88 7.8 9 11 1013.1 0 18.0 24.5 36.6 95.9 88.1 302.5
02 18:10 15.4 64 8.41 8.6 6 9 1013.1 0 19.1 25.1 38.3 100.4 93.9 323.1
02 18:00 15.5 65 8.59 9 7 17 1013.1 0 19.5 25.4 38.9 102.1 96.1 330.8
02 17:50 16 65 8.86 9.4 6 11 1013.1 0 20.0 25.7 39.7 104.3 99.0 340.9
02 17:40 16.7 65 9.24 10.1 7 9 1013.1 0 20.8 26.1 40.9 107.3 103.0 355.0
02 17:30 16.5 61 8.57 9 9 20 1013.1 0 19.4 25.1 38.3 100.6 94.7 325.7
02 17:20 17.7 61 9.2 10.1 9 15 1013.1 0 20.7 25.7 40.2 105.6 101.2 348.8
02 17:10 18.4 60 9.44 10.5 7 9 1013.1 0 21.1 25.9 40.8 107.1 103.3 356.4
02 17:00 19.2 60 9.89 11.3 7 19 1013.1 0 22.1 26.4 42.1 110.7 108.0 372.9
02 16:50 18.9 57 9.23 10.4 6 7 1013.1 0 20.7 25.4 39.7 104.3 100.0 344.9
02 16:40 18.8 56 9.02 9.8 13 19 1013.1 0 20.2 25.1 39.0 102.3 97.5 336.0
02 16:30 19.7 53 9 9.9 7 17 1013.1 0 20.2 24.8 38.5 101.0 96.2 331.4
02 16:20 19 57 9.29 10.5 11 15 1013.1 0 20.8 25.5 39.9 104.8 100.7 347.1
02 16:10 19.3 55 9.12 10 9 13 1013.1 0 20.4 25.1 39.1 102.7 98.1 338.3
02 16:00 19.1 55 9.02 9.9 7 17 1013.1 0 20.2 25.0 38.8 101.9 97.1 334.8
02 15:50 20.2 56 9.79 11.1 7 11 1013.1 0 21.8 25.9 41.2 108.3 105.4 363.8
02 15:40 20.4 50 8.84 9.6 9 13 1013.1 0 19.8 24.4 37.5 98.5 93.4 321.7
02 15:30 20.8 56 10.14 11.7 7 15 1013.1 0 22.5 26.3 42.2 111.1 109.0 376.5
02 15:20 20.8 51 9.23 10.3 11 15 1013.1 0 20.6 24.9 38.8 101.9 97.6 336.7
02 15:10 21.3 50 9.32 10.7 7 9 1013.1 0 20.7 24.9 38.9 102.1 98.1 338.5
02 15:00 20.7 54 9.72 11.1 7 17 1013.1 0 21.6 25.7 40.7 106.9 103.8 358.4
02 14:50 21 56 10.26 12.1 6 7 1013.1 0 22.7 26.4 42.6 112.0 110.2 380.8
02 14:40 20.7 56 10.08 11.8 7 7 1013.1 0 22.4 26.2 42.1 110.6 108.4 374.3
02 14:30 21.1 58 10.69 12.5 9 19 1013.1 0 23.6 27.1 44.2 116.3 115.6 399.5
02 14:20 20.6 61 10.92 12.8 9 11 1013.1 0 24.2 27.6 45.4 119.5 119.3 412.5
02 14:10 20.7 59 10.62 12.4 7 7 1013.1 0 23.5 27.1 44.2 116.2 115.3 398.4
02 14:00 21.1 59 10.87 12.8 7 15 1013.1 0 24.0 27.3 44.9 118.2 117.9 407.6

Last Refresh: 03-Dec-2021 09:30:20

Bureau of Meteorology